sensor_id;sensor_type;location;lat;lon;timestamp;P1;durP1;ratioP1;P2;durP2;ratioP2
12373;SDS011;6251;51.762;8.660;2023-05-14T01:06:20;7.65;;;6.57;;
12373;SDS011;6251;51.762;8.660;2023-05-14T02:47:58;7.82;;;7.12;;
12373;SDS011;6251;51.762;8.660;2023-05-14T02:57:58;8.23;;;7.43;;
12373;SDS011;6251;51.762;8.660;2023-05-14T04:09:01;9.27;;;7.87;;
12373;SDS011;6251;51.762;8.660;2023-05-14T04:19:02;8.38;;;7.45;;
12373;SDS011;6251;51.762;8.660;2023-05-14T04:29:06;8.48;;;7.70;;
12373;SDS011;6251;51.762;8.660;2023-05-14T04:39:06;8.27;;;7.47;;
12373;SDS011;6251;51.762;8.660;2023-05-14T04:49:08;9.00;;;8.20;;
12373;SDS011;6251;51.762;8.660;2023-05-14T04:59:09;8.45;;;7.65;;
12373;SDS011;6251;51.762;8.660;2023-05-14T05:09:09;8.20;;;7.43;;
12373;SDS011;6251;51.762;8.660;2023-05-14T05:19:10;8.40;;;7.65;;
12373;SDS011;6251;51.762;8.660;2023-05-14T05:29:11;9.27;;;7.32;;
12373;SDS011;6251;51.762;8.660;2023-05-14T05:39:11;9.10;;;8.05;;
12373;SDS011;6251;51.762;8.660;2023-05-14T05:49:12;8.40;;;7.70;;
12373;SDS011;6251;51.762;8.660;2023-05-14T05:59:12;8.18;;;7.37;;
12373;SDS011;6251;51.762;8.660;2023-05-14T06:09:13;7.57;;;6.87;;
12373;SDS011;6251;51.762;8.660;2023-05-14T06:19:14;7.30;;;6.60;;
12373;SDS011;6251;51.762;8.660;2023-05-14T06:29:15;7.12;;;6.43;;
12373;SDS011;6251;51.762;8.660;2023-05-14T06:39:16;7.03;;;6.43;;
12373;SDS011;6251;51.762;8.660;2023-05-14T06:49:16;6.05;;;5.60;;
12373;SDS011;6251;51.762;8.660;2023-05-14T06:59:17;5.62;;;5.12;;
12373;SDS011;6251;51.762;8.660;2023-05-14T07:09:17;5.37;;;4.97;;
12373;SDS011;6251;51.762;8.660;2023-05-14T07:19:18;4.15;;;3.95;;
12373;SDS011;6251;51.762;8.660;2023-05-14T07:29:19;4.20;;;3.90;;
12373;SDS011;6251;51.762;8.660;2023-05-14T07:39:20;3.90;;;3.70;;
12373;SDS011;6251;51.762;8.660;2023-05-14T07:49:21;4.10;;;3.70;;
12373;SDS011;6251;51.762;8.660;2023-05-14T07:59:21;3.72;;;3.53;;
12373;SDS011;6251;51.762;8.660;2023-05-14T08:09:22;4.10;;;3.90;;
12373;SDS011;6251;51.762;8.660;2023-05-14T08:19:23;4.00;;;3.70;;
12373;SDS011;6251;51.762;8.660;2023-05-14T08:29:23;3.83;;;3.53;;
12373;SDS011;6251;51.762;8.660;2023-05-14T08:39:24;3.58;;;3.37;;
12373;SDS011;6251;51.762;8.660;2023-05-14T08:49:34;3.65;;;3.40;;
12373;SDS011;6251;51.762;8.660;2023-05-14T08:59:39;3.90;;;3.70;;
12373;SDS011;6251;51.762;8.660;2023-05-14T09:09:40;3.65;;;3.45;;
12373;SDS011;6251;51.762;8.660;2023-05-14T09:19:44;3.65;;;3.45;;
12373;SDS011;6251;51.762;8.660;2023-05-14T09:29:48;3.00;;;2.80;;
12373;SDS011;6251;51.762;8.660;2023-05-14T09:39:48;2.80;;;2.70;;
12373;SDS011;6251;51.762;8.660;2023-05-14T09:49:51;2.60;;;2.50;;
12373;SDS011;6251;51.762;8.660;2023-05-14T09:59:52;2.67;;;2.10;;
12373;SDS011;6251;51.762;8.660;2023-05-14T10:09:53;2.60;;;2.50;;
12373;SDS011;6251;51.762;8.660;2023-05-14T10:19:58;2.03;;;1.98;;
12373;SDS011;6251;51.762;8.660;2023-05-14T10:30:03;2.40;;;2.30;;
12373;SDS011;6251;51.762;8.660;2023-05-14T10:40:11;2.50;;;2.40;;
12373;SDS011;6251;51.762;8.660;2023-05-14T10:50:13;2.50;;;2.40;;
12373;SDS011;6251;51.762;8.660;2023-05-14T11:00:14;2.40;;;2.30;;
12373;SDS011;6251;51.762;8.660;2023-05-14T11:10:16;2.22;;;2.03;;
12373;SDS011;6251;51.762;8.660;2023-05-14T11:20:18;2.00;;;2.00;;
12373;SDS011;6251;51.762;8.660;2023-05-14T11:30:20;1.80;;;1.80;;
12373;SDS011;6251;51.762;8.660;2023-05-14T11:40:20;1.70;;;1.70;;
12373;SDS011;6251;51.762;8.660;2023-05-14T11:50:21;1.80;;;1.80;;
12373;SDS011;6251;51.762;8.660;2023-05-14T12:00:22;1.83;;;1.73;;
12373;SDS011;6251;51.762;8.660;2023-05-14T12:10:23;1.70;;;1.70;;
12373;SDS011;6251;51.762;8.660;2023-05-14T12:20:24;2.78;;;2.58;;
12373;SDS011;6251;51.762;8.660;2023-05-14T12:30:25;2.10;;;2.00;;
12373;SDS011;6251;51.762;8.660;2023-05-14T12:40:25;2.37;;;2.28;;
12373;SDS011;6251;51.762;8.660;2023-05-14T12:50:26;2.20;;;2.10;;
12373;SDS011;6251;51.762;8.660;2023-05-14T13:00:27;2.43;;;2.23;;
12373;SDS011;6251;51.762;8.660;2023-05-14T13:10:27;2.25;;;2.15;;
12373;SDS011;6251;51.762;8.660;2023-05-14T13:20:28;2.40;;;2.30;;
12373;SDS011;6251;51.762;8.660;2023-05-14T13:30:30;2.12;;;2.03;;
12373;SDS011;6251;51.762;8.660;2023-05-14T13:40:31;2.30;;;2.20;;
12373;SDS011;6251;51.762;8.660;2023-05-14T13:50:31;2.08;;;2.08;;
12373;SDS011;6251;51.762;8.660;2023-05-14T14:00:32;2.03;;;2.00;;
12373;SDS011;6251;51.762;8.660;2023-05-14T14:10:34;2.22;;;2.10;;
12373;SDS011;6251;51.762;8.660;2023-05-14T14:20:35;2.67;;;2.47;;
12373;SDS011;6251;51.762;8.660;2023-05-14T14:30:36;2.75;;;2.55;;
12373;SDS011;6251;51.762;8.660;2023-05-14T14:40:36;3.00;;;2.87;;
12373;SDS011;6251;51.762;8.660;2023-05-14T14:50:37;3.03;;;2.90;;
12373;SDS011;6251;51.762;8.660;2023-05-14T15:00:38;3.00;;;2.80;;
12373;SDS011;6251;51.762;8.660;2023-05-14T15:10:39;1.98;;;1.87;;
12373;SDS011;6251;51.762;8.660;2023-05-14T15:20:40;2.65;;;2.53;;
12373;SDS011;6251;51.762;8.660;2023-05-14T15:30:41;2.50;;;2.40;;
12373;SDS011;6251;51.762;8.660;2023-05-14T15:40:41;2.60;;;2.50;;
12373;SDS011;6251;51.762;8.660;2023-05-14T15:50:42;3.07;;;2.87;;
12373;SDS011;6251;51.762;8.660;2023-05-14T16:00:42;2.78;;;2.58;;
12373;SDS011;6251;51.762;8.660;2023-05-14T16:10:43;2.20;;;2.10;;
12373;SDS011;6251;51.762;8.660;2023-05-14T16:31:15;2.78;;;2.58;;
12373;SDS011;6251;51.762;8.660;2023-05-14T16:41:16;2.80;;;2.37;;
12373;SDS011;6251;51.762;8.660;2023-05-14T16:51:17;2.20;;;2.10;;
12373;SDS011;6251;51.762;8.660;2023-05-14T17:01:18;1.90;;;1.90;;
12373;SDS011;6251;51.762;8.660;2023-05-14T17:11:19;1.85;;;1.85;;
12373;SDS011;6251;51.762;8.660;2023-05-14T17:21:20;2.42;;;2.25;;
12373;SDS011;6251;51.762;8.660;2023-05-14T17:31:20;2.33;;;2.22;;
12373;SDS011;6251;51.762;8.660;2023-05-14T17:41:22;2.60;;;2.50;;
12373;SDS011;6251;51.762;8.660;2023-05-14T17:51:22;2.50;;;2.40;;
12373;SDS011;6251;51.762;8.660;2023-05-14T18:01:23;2.90;;;2.70;;
12373;SDS011;6251;51.762;8.660;2023-05-14T18:11:24;3.87;;;3.58;;
12373;SDS011;6251;51.762;8.660;2023-05-14T18:21:25;3.67;;;3.37;;
12373;SDS011;6251;51.762;8.660;2023-05-14T18:31:26;3.40;;;3.20;;
12373;SDS011;6251;51.762;8.660;2023-05-14T18:41:26;4.07;;;3.65;;
12373;SDS011;6251;51.762;8.660;2023-05-14T18:51:27;3.53;;;3.33;;
12373;SDS011;6251;51.762;8.660;2023-05-14T19:01:28;4.22;;;3.92;;
12373;SDS011;6251;51.762;8.660;2023-05-14T19:11:30;4.60;;;4.30;;
12373;SDS011;6251;51.762;8.660;2023-05-14T19:21:30;4.55;;;4.18;;
12373;SDS011;6251;51.762;8.660;2023-05-14T19:31:31;4.35;;;4.05;;
12373;SDS011;6251;51.762;8.660;2023-05-14T19:41:32;6.00;;;5.55;;
12373;SDS011;6251;51.762;8.660;2023-05-14T19:51:32;5.75;;;5.35;;
12373;SDS011;6251;51.762;8.660;2023-05-14T20:01:33;5.22;;;4.93;;
12373;SDS011;6251;51.762;8.660;2023-05-14T20:11:33;5.15;;;4.85;;
12373;SDS011;6251;51.762;8.660;2023-05-14T20:21:34;5.32;;;4.93;;
12373;SDS011;6251;51.762;8.660;2023-05-14T20:31:35;6.00;;;5.40;;
12373;SDS011;6251;51.762;8.660;2023-05-14T20:41:35;5.85;;;5.45;;
12373;SDS011;6251;51.762;8.660;2023-05-14T20:51:36;6.30;;;5.80;;
12373;SDS011;6251;51.762;8.660;2023-05-14T23:04:28;8.75;;;7.95;;
12373;SDS011;6251;51.762;8.660;2023-05-14T23:14:28;8.32;;;7.62;;
